Time;durP1;ratioP1;P1;durP2;ratioP2;P2;SDS_P1;SDS_P2;PMS_P1;PMS_P2;Temp;Humidity;BMP_temperature;BMP_pressure;BME280_temperature;BME280_humidity;BME280_pressure;Samples;Min_cycle;Max_cycle;Signal;HPM_P1;HPM_P2
2021/05/10 00:00:20;;;;;;;23.77;11.52;;;;;;;17.56;68.67;99858.97;5105261;28;20382;-64
2021/05/10 00:02:45;;;;;;;23.85;11.63;;;;;;;17.56;69.88;99854.53;5101584;28;20055;-63
2021/05/10 00:05:11;;;;;;;23.50;11.75;;;;;;;17.50;70.22;99861.91;5106060;28;20473;-64
2021/05/10 00:07:36;;;;;;;27.23;12.43;;;;;;;17.53;71.09;99845.75;5102803;28;20063;-63
2021/05/10 00:10:06;;;;;;;28.67;12.90;;;;;;;17.49;71.17;99849.47;5104316;28;20024;-63
2021/05/10 00:12:31;;;;;;;25.98;12.02;;;;;;;17.48;71.63;99837.91;5102271;28;20114;-64
2021/05/10 00:14:57;;;;;;;25.40;11.82;;;;;;;17.49;71.90;99828.97;5103468;28;20174;-65
2021/05/10 00:17:22;;;;;;;25.20;12.57;;;;;;;17.50;70.28;99832.50;5104590;28;20032;-63
2021/05/10 00:19:47;;;;;;;24.10;10.45;;;;;;;17.46;67.76;99834.44;5102439;28;20354;-64
2021/05/10 00:22:13;;;;;;;23.40;11.13;;;;;;;17.42;69.30;99828.34;5105646;28;20386;-64
2021/05/10 00:24:38;;;;;;;24.60;11.30;;;;;;;17.39;69.30;99839.16;5102352;28;20088;-64
2021/05/10 00:27:04;;;;;;;25.38;11.80;;;;;;;17.38;68.73;99836.53;5104382;28;20425;-63
2021/05/10 00:29:29;;;;;;;24.90;11.45;;;;;;;17.38;69.48;99826.72;5103469;28;20023;-64
2021/05/10 00:31:54;;;;;;;23.60;10.95;;;;;;;17.41;68.89;99815.91;5102698;28;20016;-64
2021/05/10 00:34:20;;;;;;;23.98;11.20;;;;;;;17.43;69.80;99806.06;5105116;28;20026;-65
2021/05/10 00:36:45;;;;;;;25.42;11.50;;;;;;;17.39;70.27;99796.41;5101675;28;20024;-65
2021/05/10 00:39:11;;;;;;;23.85;10.88;;;;;;;17.34;69.33;99790.38;5104889;28;20138;-64
2021/05/10 00:41:36;;;;;;;23.27;10.70;;;;;;;17.29;71.33;99795.06;5102482;28;20032;-65
2021/05/10 00:44:02;;;;;;;23.35;10.95;;;;;;;17.27;71.13;99790.69;5103529;28;20489;-64
2021/05/10 00:46:27;;;;;;;22.80;10.95;;;;;;;17.22;70.58;99805.09;5103530;28;20092;-65
2021/05/10 00:48:53;;;;;;;23.75;11.07;;;;;;;17.26;71.13;99813.88;5102294;28;20020;-65
2021/05/10 00:51:18;;;;;;;23.40;10.77;;;;;;;17.21;70.97;99821.19;5104829;28;20115;-64
2021/05/10 00:53:44;;;;;;;23.40;10.82;;;;;;;17.17;70.88;99823.13;5101705;28;20024;-65
2021/05/10 00:56:09;;;;;;;24.30;10.82;;;;;;;17.09;71.93;99819.88;5104472;28;20020;-65
2021/05/10 00:58:34;;;;;;;27.15;11.45;;;;;;;17.00;72.56;99817.56;5102234;28;20028;-65
2021/05/10 01:01:00;;;;;;;24.02;11.60;;;;;;;17.00;72.19;99804.22;5103316;28;20427;-65
2021/05/10 01:03:26;;;;;;;23.33;11.35;;;;;;;16.90;73.28;99803.69;5103171;28;20031;-65
2021/05/10 01:05:51;;;;;;;25.35;11.93;;;;;;;16.82;73.42;99800.41;5102015;28;20103;-64
2021/05/10 01:08:17;;;;;;;24.30;11.65;;;;;;;16.82;74.34;99797.72;5105008;28;20115;-64
2021/05/10 01:10:43;;;;;;;25.75;11.15;;;;;;;16.86;74.01;99797.56;5101085;28;20028;-64
2021/05/10 01:13:09;;;;;;;25.60;11.85;;;;;;;16.89;74.39;99794.81;5104002;28;20065;-64
2021/05/10 01:15:34;;;;;;;25.80;12.25;;;;;;;16.93;74.45;99798.22;5102217;28;20095;-64
2021/05/10 01:17:59;;;;;;;23.45;11.68;;;;;;;16.95;73.63;99799.06;5101438;28;20031;-65
2021/05/10 01:20:26;;;;;;;24.25;11.95;;;;;;;16.92;73.80;99795.63;5103225;28;20024;-64
2021/05/10 01:22:53;;;;;;;26.05;12.48;;;;;;;16.85;73.68;99790.50;5101787;28;20483;-64
2021/05/10 01:25:37;;;;;;;24.45;12.35;;;;;;;16.81;73.01;99794.19;5103892;28;20501;-64
2021/05/10 01:28:03;;;;;;;25.73;12.45;;;;;;;16.72;74.66;99787.41;5103292;28;20383;-65
2021/05/10 01:30:34;;;;;;;25.75;13.15;;;;;;;16.68;74.04;99798.28;5102720;28;20019;-64
2021/05/10 01:33:01;;;;;;;27.88;13.63;;;;;;;16.60;74.85;99795.91;5102744;28;20109;-65
2021/05/10 01:35:29;;;;;;;26.08;13.27;;;;;;;16.55;75.46;99785.38;5102999;28;20106;-65
2021/05/10 01:37:55;;;;;;;26.90;13.82;;;;;;;16.47;76.24;99784.81;5101763;28;20402;-64
2021/05/10 01:40:21;;;;;;;26.77;13.80;;;;;;;16.45;76.57;99778.63;5103987;28;20019;-65
2021/05/10 01:42:46;;;;;;;27.27;14.63;;;;;;;16.42;76.59;99764.56;5099528;28;20031;-65
2021/05/10 01:45:12;;;;;;;28.00;14.27;;;;;;;16.40;76.29;99761.94;5103989;28;20031;-64
2021/05/10 01:47:38;;;;;;;26.50;14.07;;;;;;;16.47;76.68;99754.56;5101404;28;20032;-65
2021/05/10 01:50:17;;;;;;;27.70;13.98;;;;;;;16.45;75.29;99759.09;5102936;28;20038;-65
2021/05/10 01:52:42;;;;;;;29.33;15.07;;;;;;;16.32;76.31;99737.34;5096472;28;20016;-65
2021/05/10 01:55:08;;;;;;;26.77;15.00;;;;;;;16.26;76.83;99742.91;5103759;28;20020;-65
2021/05/10 01:57:37;;;;;;;28.80;15.98;;;;;;;16.18;76.62;99738.72;5101822;28;20024;-65
2021/05/10 02:00:11;;;;;;;29.60;16.45;;;;;;;16.09;76.17;99741.75;5102920;28;20039;-65
2021/05/10 02:02:37;;;;;;;28.60;15.55;;;;;;;16.03;76.88;99740.16;5101210;28;20549;-64
2021/05/10 02:05:09;;;;;;;27.90;15.07;;;;;;;16.00;77.02;99737.59;5102665;28;20119;-65
2021/05/10 02:07:36;;;;;;;26.75;13.70;;;;;;;15.95;77.87;99733.38;5101673;28;20024;-65
2021/05/10 02:10:05;;;;;;;25.45;13.95;;;;;;;15.91;77.85;99726.41;5102455;28;20077;-65
2021/05/10 02:12:30;;;;;;;27.52;14.20;;;;;;;15.82;78.48;99719.59;5102475;28;20032;-64
2021/05/10 02:14:55;;;;;;;27.42;15.20;;;;;;;15.77;79.21;99724.16;5101723;28;20024;-65
2021/05/10 02:17:20;;;;;;;27.23;14.90;;;;;;;15.70;79.22;99707.53;5103487;28;20466;-64
2021/05/10 02:19:46;;;;;;;27.48;14.32;;;;;;;15.67;79.14;99702.31;5100690;28;20032;-65
2021/05/10 02:22:11;;;;;;;26.77;13.90;;;;;;;15.67;79.14;99702.31;5104042;28;20031;-65
2021/05/10 02:24:37;;;;;;;26.38;13.63;;;;;;;15.67;77.82;99705.84;5100981;28;20036;-64
2021/05/10 02:27:04;;;;;;;26.13;13.32;;;;;;;15.65;77.83;99702.38;5105569;28;20016;-65
2021/05/10 02:29:29;;;;;;;26.92;13.65;;;;;;;15.65;77.60;99705.03;5105896;28;20035;-64
2021/05/10 02:31:55;;;;;;;28.27;13.00;;;;;;;15.69;75.54;99695.13;5104912;28;20050;-63
2021/05/10 02:34:20;;;;;;;26.05;12.05;;;;;;;15.74;74.77;99701.19;5107291;27;20023;-62
2021/05/10 02:36:45;;;;;;;23.50;9.55;;;;;;;15.81;71.12;99704.53;5104042;28;20114;-62
2021/05/10 02:39:11;;;;;;;21.00;7.70;;;;;;;15.99;66.37;99706.53;5105498;28;20050;-63
2021/05/10 02:41:36;;;;;;;21.90;7.70;;;;;;;16.29;63.73;99695.66;5104703;28;20028;-62
2021/05/10 02:44:02;;;;;;;19.27;6.40;;;;;;;16.67;60.29;99697.81;5105624;28;20409;-63
2021/05/10 02:46:27;;;;;;;21.35;6.60;;;;;;;17.15;56.50;99696.78;5105922;27;20027;-62
2021/05/10 02:48:53;;;;;;;20.20;5.90;;;;;;;17.48;54.06;99691.00;5104564;28;20024;-62
2021/05/10 02:51:18;;;;;;;20.00;5.70;;;;;;;17.73;53.35;99690.78;5107080;27;20494;-63
2021/05/10 02:53:43;;;;;;;18.70;5.45;;;;;;;17.88;52.78;99696.41;5104185;28;20031;-64
2021/05/10 02:56:09;;;;;;;18.55;5.50;;;;;;;18.00;51.60;99695.03;5106779;28;20100;-63
2021/05/10 02:58:34;;;;;;;19.38;5.13;;;;;;;18.14;51.58;99700.63;5104955;28;20458;-63
2021/05/10 03:00:59;;;;;;;18.85;5.00;;;;;;;18.27;49.88;99695.59;5105227;28;20016;-63
2021/05/10 03:03:24;;;;;;;17.45;5.10;;;;;;;18.33;50.21;99700.66;5105851;28;20419;-62
2021/05/10 03:05:51;;;;;;;18.52;4.93;;;;;;;18.39;49.62;99699.50;5103932;28;20028;-64
2021/05/10 03:08:16;;;;;;;17.83;5.15;;;;;;;18.54;48.54;99688.09;5107220;28;20070;-63
2021/05/10 03:10:42;;;;;;;16.27;4.80;;;;;;;18.59;48.54;99682.53;5103416;28;20027;-63
2021/05/10 03:13:07;;;;;;;15.25;4.82;;;;;;;18.63;48.65;99695.69;5106218;28;20131;-65
2021/05/10 03:15:32;;;;;;;16.85;4.90;;;;;;;18.68;48.07;99697.28;5104401;28;20464;-65
2021/05/10 03:17:58;;;;;;;18.92;5.22;;;;;;;18.64;47.94;99707.28;5104771;28;20038;-64
2021/05/10 03:20:23;;;;;;;16.65;4.90;;;;;;;18.66;48.16;99696.50;5106297;28;20416;-65
2021/05/10 03:22:53;;;;;;;16.45;4.75;;;;;;;18.67;48.39;99696.44;5103120;28;20020;-65
2021/05/10 03:25:20;;;;;;;18.67;4.93;;;;;;;18.68;47.40;99710.66;5106412;28;20046;-65
2021/05/10 03:27:46;;;;;;;16.52;4.80;;;;;;;18.77;47.07;99708.44;5103268;28;20142;-65
2021/05/10 03:30:19;;;;;;;17.70;4.40;;;;;;;18.89;47.50;99707.00;5105995;28;20497;-65
2021/05/10 03:32:46;;;;;;;19.20;4.57;;;;;;;19.04;46.01;99707.22;5099133;28;20047;-65
2021/05/10 03:35:13;;;;;;;18.67;4.80;;;;;;;19.10;46.21;99715.78;5106373;28;20107;-64
2021/05/10 03:37:38;;;;;;;18.08;4.53;;;;;;;19.15;46.26;99720.94;5103388;28;20125;-65
2021/05/10 03:40:07;;;;;;;17.92;4.60;;;;;;;19.13;46.13;99714.78;5105299;28;20032;-64
2021/05/10 03:42:32;;;;;;;16.95;4.80;;;;;;;19.15;46.33;99713.78;5104167;28;20350;-65
2021/05/10 03:44:58;;;;;;;17.25;4.50;;;;;;;19.15;46.01;99716.44;5104065;28;20027;-65
2021/05/10 03:47:33;;;;;;;16.95;4.55;;;;;;;19.22;45.24;99705.44;5105396;28;20173;-64
2021/05/10 03:49:59;;;;;;;18.27;4.80;;;;;;;19.18;46.00;99718.13;5104069;28;20024;-64
2021/05/10 03:52:25;;;;;;;18.73;4.57;;;;;;;19.19;45.70;99714.47;5105212;28;20031;-65
2021/05/10 03:54:50;;;;;;;18.05;4.53;;;;;;;19.17;45.46;99725.25;5102893;28;20040;-64
2021/05/10 03:57:15;;;;;;;16.13;4.35;;;;;;;19.32;45.32;99714.75;5106216;28;20077;-63
2021/05/10 03:59:41;;;;;;;17.58;4.10;;;;;;;19.33;45.08;99727.19;5103083;27;20035;-63
2021/05/10 04:02:06;;;;;;;18.58;4.30;;;;;;;19.48;44.99;99720.19;5105144;28;20039;-63
2021/05/10 04:04:39;;;;;;;16.27;4.22;;;;;;;19.50;44.72;99748.66;5102522;28;20431;-64
2021/05/10 04:07:17;;;;;;;16.08;4.40;;;;;;;19.55;44.86;99731.50;5104765;28;20429;-63
2021/05/10 04:14:52;;;;;;;18.33;4.28;;;;;;;19.64;44.71;99749.78;5099793;28;20046;-63
2021/05/10 04:17:17;;;;;;;17.05;4.45;;;;;;;19.75;44.56;99746.56;5106012;28;20449;-64
2021/05/10 04:19:43;;;;;;;17.83;4.50;;;;;;;19.72;44.62;99765.47;5102271;27;20034;-63
2021/05/10 04:22:08;;;;;;;18.92;4.43;;;;;;;19.78;44.58;99776.78;5104727;28;20066;-63
2021/05/10 04:24:33;;;;;;;18.05;4.80;;;;;;;19.71;45.59;99772.66;5103734;28;20127;-64
2021/05/10 04:27:01;;;;;;;20.77;5.03;;;;;;;19.67;46.35;99797.88;5103028;28;20030;-63
2021/05/10 04:29:26;;;;;;;22.50;5.32;;;;;;;19.50;47.52;99823.69;5104525;28;20031;-63
2021/05/10 04:31:51;;;;;;;20.17;5.18;;;;;;;19.29;49.97;99822.06;5102541;28;20382;-64
2021/05/10 04:34:17;;;;;;;22.20;6.07;;;;;;;18.94;50.93;99846.00;5105688;28;20027;-63
2021/05/10 04:36:42;;;;;;;20.25;5.28;;;;;;;18.84;51.65;99839.31;5101970;28;20048;-63
2021/05/10 04:39:07;;;;;;;20.05;5.13;;;;;;;18.77;51.89;99839.59;5104270;28;20047;-64
2021/05/10 04:41:33;;;;;;;18.42;4.97;;;;;;;18.47;52.55;99828.47;5103082;28;20088;-64
2021/05/10 04:43:58;;;;;;;21.63;4.40;;;;;;;18.43;52.63;99826.84;5102700;28;20032;-64
2021/05/10 04:46:24;;;;;;;23.38;3.92;;;;;;;18.26;52.57;99822.22;5104875;28;20039;-64
2021/05/10 04:48:49;;;;;;;19.30;3.65;;;;;;;18.19;52.94;99812.72;5100945;28;20129;-64
2021/05/10 04:51:14;;;;;;;13.35;2.80;;;;;;;18.19;52.02;99808.28;5104822;28;20031;-64
2021/05/10 04:53:39;;;;;;;13.63;2.70;;;;;;;18.05;52.43;99795.50;5102172;27;20031;-65
2021/05/10 04:56:05;;;;;;;15.95;3.00;;;;;;;17.85;53.59;99779.41;5103895;28;20020;-64
2021/05/10 04:58:30;;;;;;;13.57;3.20;;;;;;;17.68;54.66;99783.66;5103705;28;20098;-64
2021/05/10 05:00:56;;;;;;;15.75;3.20;;;;;;;17.51;55.27;99789.69;5102198;28;20024;-63
2021/05/10 05:03:21;;;;;;;12.85;3.30;;;;;;;17.36;55.84;99790.34;5104228;28;20034;-63
2021/05/10 05:05:46;;;;;;;14.07;3.13;;;;;;;17.42;55.43;99806.13;5101428;28;20050;-65
2021/05/10 05:08:12;;;;;;;9.65;2.42;;;;;;;17.47;54.56;99814.78;5104324;28;20015;-65
2021/05/10 05:10:37;;;;;;;8.95;2.60;;;;;;;17.41;54.55;99826.59;5102271;28;20031;-65
2021/05/10 05:13:02;;;;;;;10.60;2.58;;;;;;;17.29;55.04;99844.94;5103108;28;20467;-64
2021/05/10 05:15:28;;;;;;;10.82;2.70;;;;;;;17.34;55.00;99883.84;5103147;28;20055;-65
2021/05/10 05:17:53;;;;;;;8.73;2.55;;;;;;;17.22;55.62;99911.91;5101576;28;20103;-64
2021/05/10 05:20:18;;;;;;;9.68;2.83;;;;;;;17.21;55.58;99931.56;5105087;28;20115;-64
2021/05/10 05:22:44;;;;;;;11.73;3.03;;;;;;;17.16;55.51;99949.53;5101039;28;20038;-63
2021/05/10 05:25:11;;;;;;;8.02;2.40;;;;;;;17.07;55.84;99963.22;5103734;28;20450;-63
2021/05/10 05:27:37;;;;;;;9.60;2.40;;;;;;;17.15;55.55;99989.66;5102073;28;20063;-62
2021/05/10 05:30:04;;;;;;;9.88;2.58;;;;;;;17.02;56.47;99976.75;5102454;28;20527;-62
2021/05/10 05:32:31;;;;;;;10.63;2.78;;;;;;;16.92;57.30;99982.47;5102920;28;20142;-62
2021/05/10 05:34:56;;;;;;;13.40;2.80;;;;;;;16.91;57.53;99984.28;5102216;28;20095;-62
2021/05/10 05:37:22;;;;;;;12.75;2.67;;;;;;;16.77;58.91;100003.38;5097119;28;20375;-64
2021/05/10 05:39:47;;;;;;;12.43;2.67;;;;;;;16.74;58.99;100017.69;5098902;28;20044;-64
2021/05/10 05:42:13;;;;;;;12.23;2.80;;;;;;;16.68;59.60;100009.91;5097376;28;20098;-64
2021/05/10 05:44:41;;;;;;;11.10;2.95;;;;;;;16.68;59.95;100009.06;5097165;28;20370;-64
2021/05/10 05:47:06;;;;;;;14.43;2.80;;;;;;;16.66;60.33;100000.22;5100828;28;20085;-65
2021/05/10 05:49:34;;;;;;;12.48;2.97;;;;;;;16.69;60.36;99998.31;5097861;28;20024;-64
2021/05/10 05:52:03;;;;;;;14.05;2.78;;;;;;;16.67;60.28;100013.53;5099327;28;20062;-64
2021/05/10 05:54:29;;;;;;;13.48;2.90;;;;;;;16.75;60.43;100023.94;5096325;28;20035;-65
2021/05/10 05:56:54;;;;;;;13.02;2.85;;;;;;;16.79;59.90;100008.66;5099821;28;20043;-65
2021/05/10 05:59:20;;;;;;;15.20;3.10;;;;;;;16.89;59.97;100032.38;5094320;28;20116;-65
2021/05/10 06:01:47;;;;;;;13.55;2.78;;;;;;;16.81;60.49;100028.19;5100387;28;20038;-64
2021/05/10 06:04:12;;;;;;;13.60;2.72;;;;;;;16.90;59.68;100046.56;5103647;28;20034;-66
2021/05/10 06:06:37;;;;;;;11.93;2.88;;;;;;;16.86;59.72;100060.91;5100653;28;20032;-64
2021/05/10 06:09:06;;;;;;;10.88;2.72;;;;;;;16.93;60.13;100057.16;5102456;28;20031;-64
2021/05/10 06:11:32;;;;;;;17.05;3.00;;;;;;;16.86;60.54;100027.13;5103314;28;20020;-64
2021/05/10 06:13:57;;;;;;;11.13;2.80;;;;;;;16.93;59.77;100049.13;5098608;27;20020;-65
2021/05/10 06:16:26;;;;;;;13.35;2.90;;;;;;;16.83;60.48;100047.69;5104129;28;20043;-64
2021/05/10 06:18:52;;;;;;;10.77;2.90;;;;;;;16.86;61.10;100052.91;5100829;28;20082;-64
2021/05/10 06:21:18;;;;;;;11.68;3.00;;;;;;;16.83;60.18;100040.53;5102332;28;20466;-65
2021/05/10 06:23:44;;;;;;;12.40;3.00;;;;;;;16.80;60.57;100045.13;5106510;28;20516;-64
2021/05/10 06:26:09;;;;;;;13.57;3.20;;;;;;;16.79;60.57;100035.34;5104727;27;20044;-64
2021/05/10 06:28:34;;;;;;;13.95;3.10;;;;;;;16.82;61.03;100054.81;5104564;28;20024;-65
2021/05/10 06:31:00;;;;;;;11.95;3.17;;;;;;;16.94;60.54;100053.56;5106773;28;20040;-64
2021/05/10 06:33:25;;;;;;;14.05;3.40;;;;;;;17.00;59.96;100065.81;5106120;28;20024;-63
2021/05/10 06:35:51;;;;;;;11.93;3.17;;;;;;;16.93;60.22;100065.16;5103522;28;20033;-63
2021/05/10 06:38:16;;;;;;;10.43;3.25;;;;;;;16.91;60.14;100067.00;5104395;28;20088;-64
2021/05/10 06:40:41;;;;;;;15.50;3.50;;;;;;;16.90;61.02;100067.94;5103935;28;20016;-65
2021/05/10 06:43:08;;;;;;;14.48;3.72;;;;;;;17.01;59.85;100063.09;5105205;28;20369;-64
2021/05/10 06:45:33;;;;;;;15.02;3.60;;;;;;;16.90;60.27;100078.59;5099043;28;20028;-62
2021/05/10 06:47:58;;;;;;;14.02;3.58;;;;;;;16.92;61.10;100089.22;5104687;28;20025;-64
2021/05/10 06:50:24;;;;;;;15.55;3.90;;;;;;;16.97;60.83;100116.66;5103413;28;20016;-65
2021/05/10 06:52:49;;;;;;;14.70;3.40;;;;;;;17.02;59.96;100122.69;5099421;28;20031;-65
2021/05/10 06:55:14;;;;;;;15.25;3.90;;;;;;;17.01;59.91;100115.63;5103676;28;20024;-64
2021/05/10 06:57:40;;;;;;;16.13;3.92;;;;;;;16.85;60.88;100099.22;5098930;28;20025;-63
2021/05/10 07:00:06;;;;;;;15.75;3.90;;;;;;;16.81;61.27;100119.78;5102531;28;20058;-63
2021/05/10 07:02:31;;;;;;;16.98;4.07;;;;;;;16.74;61.46;100119.09;5097327;27;20064;-62
2021/05/10 07:04:56;;;;;;;16.40;4.10;;;;;;;16.61;62.08;100107.09;5099256;28;20024;-63
2021/05/10 07:07:22;;;;;;;15.75;4.03;;;;;;;16.82;62.37;100096.63;5101134;28;20027;-63
2021/05/10 07:09:48;;;;;;;16.70;4.22;;;;;;;17.00;61.41;100109.41;5097505;28;20032;-64
2021/05/10 07:12:13;;;;;;;16.85;4.00;;;;;;;16.92;60.88;100134.59;5094478;28;20024;-64
2021/05/10 07:14:40;;;;;;;15.65;4.15;;;;;;;16.78;61.46;100119.03;5097901;28;20489;-63
2021/05/10 07:17:06;;;;;;;16.45;4.40;;;;;;;16.82;62.26;100126.00;5094234;28;20068;-63
2021/05/10 07:19:31;;;;;;;15.65;4.15;;;;;;;16.92;61.93;100126.59;5097760;28;20386;-63
2021/05/10 07:21:56;;;;;;;16.95;4.30;;;;;;;16.85;62.66;100149.94;5095122;28;20055;-64
2021/05/10 07:24:22;;;;;;;16.95;4.20;;;;;;;16.66;62.93;100160.31;5093204;28;20036;-64
2021/05/10 07:26:47;;;;;;;18.23;4.28;;;;;;;16.50;63.50;100149.28;5096358;28;20052;-63
2021/05/10 07:29:12;;;;;;;16.05;4.10;;;;;;;16.54;63.42;100180.25;5096944;28;20530;-62
2021/05/10 07:31:38;;;;;;;18.20;4.20;;;;;;;16.56;63.32;100175.75;5096734;28;20046;-63
2021/05/10 07:34:03;;;;;;;16.40;4.15;;;;;;;16.45;63.71;100161.88;5097021;28;20430;-64
2021/05/10 07:36:29;;;;;;;13.35;3.70;;;;;;;16.41;64.23;100174.44;5094226;28;20077;-63
2021/05/10 07:38:54;;;;;;;14.23;3.90;;;;;;;16.37;63.71;100181.63;5097472;28;20085;-64
2021/05/10 07:41:20;;;;;;;17.08;4.40;;;;;;;16.26;64.49;100210.41;5094080;28;20036;-63
2021/05/10 07:43:45;;;;;;;16.63;4.13;;;;;;;16.30;64.50;100197.88;5092931;28;20104;-64
2021/05/10 07:46:11;;;;;;;15.18;3.97;;;;;;;16.23;64.57;100209.63;5095284;28;20023;-63
2021/05/10 07:48:36;;;;;;;15.45;4.10;;;;;;;16.15;65.50;100225.84;5095847;28;20020;-64
2021/05/10 07:51:02;;;;;;;16.42;4.10;;;;;;;16.21;65.86;100220.34;5100102;28;20027;-62
2021/05/10 07:53:27;;;;;;;18.48;4.32;;;;;;;16.36;65.25;100213.69;5098576;28;20028;-62
2021/05/10 07:55:54;;;;;;;17.88;4.55;;;;;;;16.28;65.99;100211.25;5098322;28;20113;-63
2021/05/10 07:58:24;;;;;;;15.70;4.00;;;;;;;16.30;64.17;100209.41;5098430;28;20482;-63
2021/05/10 08:00:54;;;;;;;18.42;3.97;;;;;;;16.29;64.33;100207.66;5100630;28;20133;-62
2021/05/10 08:03:21;;;;;;;16.38;4.28;;;;;;;16.35;64.69;100214.59;5100059;28;20110;-63
2021/05/10 08:05:46;;;;;;;16.63;4.00;;;;;;;16.38;63.19;100236.75;5098970;28;20078;-63
2021/05/10 08:08:13;;;;;;;15.88;3.78;;;;;;;16.33;62.45;100238.66;5106374;28;20050;-63
2021/05/10 08:10:39;;;;;;;17.88;3.97;;;;;;;16.42;61.89;100232.16;5100003;28;20030;-62
2021/05/10 08:13:05;;;;;;;17.55;4.65;;;;;;;16.29;62.38;100220.97;5102992;27;20493;-63
2021/05/10 08:15:30;;;;;;;16.38;3.90;;;;;;;16.35;61.88;100222.59;5103548;28;20057;-63
2021/05/10 08:17:56;;;;;;;16.10;3.80;;;;;;;16.32;62.33;100231.56;5100303;28;20020;-63
2021/05/10 08:20:21;;;;;;;15.98;4.05;;;;;;;16.27;62.93;100241.50;5104956;28;20099;-63
2021/05/10 08:22:46;;;;;;;16.20;4.00;;;;;;;16.19;63.98;100228.41;5101048;28;20024;-63
2021/05/10 08:25:12;;;;;;;16.05;3.80;;;;;;;16.34;63.58;100228.88;5103426;28;20119;-63
2021/05/10 08:27:39;;;;;;;15.05;4.10;;;;;;;16.39;63.37;100240.28;5099889;28;20103;-63
2021/05/10 08:30:07;;;;;;;17.52;4.03;;;;;;;16.50;63.12;100245.31;5101723;28;20031;-64
2021/05/10 08:32:32;;;;;;;15.80;4.15;;;;;;;16.52;63.04;100243.44;5097765;28;20055;-64
2021/05/10 08:34:58;;;;;;;16.98;4.40;;;;;;;16.50;63.79;100254.16;5100433;28;20442;-64
2021/05/10 08:37:24;;;;;;;14.45;3.83;;;;;;;16.42;63.53;100260.66;5099766;28;20355;-63
2021/05/10 08:39:49;;;;;;;17.08;4.20;;;;;;;16.45;63.64;100261.41;5101383;28;20060;-64
2021/05/10 08:42:18;;;;;;;18.88;4.18;;;;;;;16.37;64.55;100272.31;5100976;28;20428;-62
2021/05/10 08:44:43;;;;;;;15.32;4.20;;;;;;;16.40;64.37;100284.69;5096605;28;20028;-63
2021/05/10 08:47:09;;;;;;;15.27;4.15;;;;;;;16.26;65.67;100293.06;5100367;28;20031;-64
2021/05/10 08:49:34;;;;;;;16.88;4.32;;;;;;;16.30;65.49;100304.56;5096086;28;20028;-63
2021/05/10 08:52:00;;;;;;;19.80;4.53;;;;;;;16.21;66.00;100316.34;5099610;28;20039;-63
2021/05/10 08:54:26;;;;;;;19.17;4.90;;;;;;;16.08;66.42;100313.13;5094822;28;20474;-64
2021/05/10 08:56:53;;;;;;;17.42;4.78;;;;;;;16.09;67.18;100314.88;5096510;28;20032;-62
2021/05/10 08:59:20;;;;;;;18.02;4.78;;;;;;;16.08;67.94;100320.25;5093403;28;20026;-63
2021/05/10 09:02:00;;;;;;;19.02;4.95;;;;;;;16.12;67.22;100327.25;5097729;28;20024;-63
2021/05/10 09:04:34;;;;;;;18.88;4.93;;;;;;;16.08;66.76;100320.25;5095460;28;20039;-62
2021/05/10 09:07:09;;;;;;;20.17;5.28;;;;;;;15.94;67.95;100328.59;5094514;28;20055;-62
2021/05/10 09:09:51;;;;;;;18.77;5.22;;;;;;;15.98;67.65;100319.63;5099529;28;20039;-63
2021/05/10 09:12:19;;;;;;;17.73;5.07;;;;;;;16.00;68.02;100320.44;5097936;28;20028;-62
2021/05/10 09:14:45;;;;;;;18.67;5.28;;;;;;;16.10;66.71;100323.75;5095323;28;20047;-63
2021/05/10 09:17:10;;;;;;;18.27;5.13;;;;;;;16.10;67.53;100337.09;5099594;28;20021;-63
2021/05/10 09:19:43;;;;;;;18.05;5.07;;;;;;;16.17;66.82;100325.34;5094940;28;20024;-63
2021/05/10 09:22:08;;;;;;;18.73;5.25;;;;;;;16.22;66.49;100320.75;5099118;28;20024;-63
2021/05/10 09:24:44;;;;;;;17.80;5.10;;;;;;;16.19;66.67;100339.50;5098207;28;20466;-63
2021/05/10 09:27:35;;;;;;;20.77;5.43;;;;;;;16.24;66.23;100342.94;5096871;28;20423;-63
2021/05/10 09:30:17;;;;;;;18.95;5.45;;;;;;;16.26;66.05;100357.06;5094344;28;20043;-63
2021/05/10 09:32:51;;;;;;;17.58;5.10;;;;;;;16.23;66.53;100359.84;5099237;28;20416;-62
2021/05/10 09:35:22;;;;;;;18.48;5.13;;;;;;;16.31;64.56;100360.50;5096038;28;20024;-62
2021/05/10 09:37:53;;;;;;;19.08;5.30;;;;;;;16.14;66.08;100358.28;5096785;28;20405;-62
2021/05/10 09:40:19;;;;;;;19.27;5.05;;;;;;;16.13;65.01;100355.66;5101084;28;20491;-62
2021/05/10 09:42:52;;;;;;;19.77;5.47;;;;;;;16.11;66.58;100368.16;5105114;28;20054;-62
2021/05/10 09:45:38;;;;;;;19.35;5.10;;;;;;;16.24;66.07;100369.59;5099803;28;20027;-62
2021/05/10 09:48:12;;;;;;;17.83;5.03;;;;;;;16.26;65.16;100373.06;5099481;28;20035;-64
2021/05/10 09:50:40;;;;;;;18.00;4.85;;;;;;;16.27;65.23;100395.31;5095004;28;20096;-63
2021/05/10 09:53:07;;;;;;;18.42;5.15;;;;;;;16.18;64.69;100386.63;5091472;28;20020;-62
2021/05/10 09:55:53;;;;;;;18.60;4.85;;;;;;;16.16;64.96;100393.81;5092423;28;20059;-63
2021/05/10 09:58:19;;;;;;;20.40;5.15;;;;;;;16.06;65.74;100402.06;5089037;28;20024;-63
2021/05/10 10:00:45;;;;;;;18.85;5.43;;;;;;;16.25;65.33;100402.47;5092818;28;20062;-62
2021/05/10 10:03:31;;;;;;;18.70;5.82;;;;;;;16.43;65.44;100412.66;5094202;28;20035;-66
2021/05/10 10:05:59;;;;;;;21.15;6.70;;;;;;;16.43;65.81;100407.31;5093353;28;20032;-65
2021/05/10 10:08:26;;;;;;;22.58;6.80;;;;;;;16.62;67.17;100422.84;5101185;28;20035;-64
2021/05/10 10:10:51;;;;;;;20.55;6.82;;;;;;;17.00;64.52;100410.22;5099652;28;20419;-65
2021/05/10 10:13:18;;;;;;;21.30;6.95;;;;;;;17.07;63.22;100403.78;5096741;28;20131;-64
2021/05/10 10:15:44;;;;;;;21.77;6.60;;;;;;;17.02;64.31;100400.34;5102856;28;20039;-65
2021/05/10 10:18:10;;;;;;;21.65;6.82;;;;;;;16.95;62.27;100405.03;5096716;28;20027;-65
2021/05/10 10:20:37;;;;;;;23.42;7.00;;;;;;;16.73;63.75;100410.94;5100850;28;20028;-65
2021/05/10 10:23:07;;;;;;;22.25;6.65;;;;;;;16.51;64.48;100418.66;5096430;28;20385;-65
2021/05/10 10:25:36;;;;;;;19.35;6.28;;;;;;;16.47;64.01;100434.75;5096101;28;20113;-65
2021/05/10 10:28:02;;;;;;;20.40;6.22;;;;;;;16.44;64.38;100448.19;5097587;28;20497;-65
2021/05/10 10:30:28;;;;;;;20.38;6.40;;;;;;;16.48;63.14;100455.19;5094894;28;20036;-65
2021/05/10 10:32:59;;;;;;;20.05;5.95;;;;;;;16.54;62.57;100460.38;5095820;28;20148;-65
2021/05/10 10:35:25;;;;;;;19.83;6.05;;;;;;;16.94;62.74;100456.66;5097722;28;20059;-64
2021/05/10 10:37:51;;;;;;;23.20;6.25;;;;;;;17.41;58.98;100467.72;5095798;28;20020;-65
2021/05/10 10:40:20;;;;;;;19.65;5.60;;;;;;;17.54;58.70;100464.72;5097287;28;20051;-65
2021/05/10 10:42:46;;;;;;;19.20;5.80;;;;;;;17.56;57.61;100461.06;5097233;28;20028;-67
2021/05/10 10:45:11;;;;;;;21.05;6.18;;;;;;;17.83;58.59;100450.44;5096589;28;20034;-69
2021/05/10 10:47:46;;;;;;;20.42;6.28;;;;;;;18.09;56.12;100438.91;5101198;28;20695;-67
2021/05/10 10:50:14;;;;;;;21.70;6.40;;;;;;;18.12;57.94;100448.66;5099926;28;20073;-67
2021/05/10 10:52:59;;;;;;;21.00;6.20;;;;;;;18.26;56.29;100450.84;5101888;28;20027;-65
2021/05/10 10:55:25;;;;;;;19.75;6.05;;;;;;;17.89;56.79;100441.34;5100054;28;20016;-66
2021/05/10 10:57:53;;;;;;;20.20;5.93;;;;;;;17.61;57.91;100458.25;5100333;28;20153;-67
2021/05/10 11:00:20;;;;;;;23.10;6.25;;;;;;;17.41;58.48;100472.22;5101442;28;20084;-67
2021/05/10 11:02:47;;;;;;;21.80;6.57;;;;;;;17.33;57.92;100474.22;5104022;28;20020;-69
2021/05/10 11:05:13;;;;;;;19.77;6.35;;;;;;;17.28;58.23;100481.53;5097363;28;20028;-66
2021/05/10 11:08:14;;;;;;;23.50;7.30;;;;;;;17.31;58.45;100484.09;5094335;28;20134;-67
2021/05/10 11:10:52;;;;;;;22.05;6.40;;;;;;;17.53;57.45;100468.28;5058771;28;20144;-67
2021/05/10 11:13:26;;;;;;;20.75;6.25;;;;;;;18.31;55.10;100464.94;5055215;28;20040;-68
2021/05/10 11:16:01;;;;;;;19.15;5.43;;;;;;;18.90;52.31;100479.00;5052457;28;20067;-66
2021/05/10 11:18:43;;;;;;;20.60;6.00;;;;;;;19.33;52.38;100480.09;5053529;28;20541;-65
2021/05/10 11:21:29;;;;;;;22.13;6.05;;;;;;;19.49;51.03;100464.31;5047036;28;20132;-64
2021/05/10 11:23:59;;;;;;;20.23;5.63;;;;;;;20.55;47.99;100468.06;5056854;28;20029;-64